Three Rivers, New Mexico
Current Conditions -  °F | °C
As of 7:58 PM on Wednesday 22 Oct 2014 (Local Time) from KHMN Reporting Station
Clear Clear  
Wind Chill: 66°   Ceiling: Unl
Heat Index: 66°   Visibility: 10mi
Dew Point: 53°   Wind: 3mph
Humidity: 63%   Direction: 150°SSE
Pressure: 30.11"   Gusts: NA
Location:  33.1487°N, 106.136°W
Report Text: KHMN 230158Z AUTO 15003KT 10SM CLR 19/12 A3011 RMK AO2 SLP152 T01900117 $
Loading
Personal Weather Stations






























Interactive Weather Map
Tropical Storm Tracking
New forecast layout! Learn more

10-Day Weather Forecast

Advertisements
Track Severe Weather on mobile